Time;durP1;ratioP1;P1;durP2;ratioP2;P2;SDS_P1;SDS_P2;PMS_P1;PMS_P2;Temp;Humidity;BMP_temperature;BMP_pressure;BME280_temperature;BME280_humidity;BME280_pressure;Samples;Min_cycle;Max_cycle;Signal;HPM_P1;HPM_P2
2023/09/22 00:01:22;;;;;;;5.38;3.42;;;;;;;17.00;100.00;99530.53;6252478;28;20045;-71
2023/09/22 00:04:24;;;;;;;6.05;3.65;;;;;;;16.99;100.00;99534.19;6252776;28;20055;-71
2023/09/22 00:07:26;;;;;;;4.60;2.70;;;;;;;16.95;100.00;99540.78;6252561;28;20052;-71
2023/09/22 00:10:27;;;;;;;3.90;2.88;;;;;;;16.88;100.00;99537.03;6252350;28;20061;-71
2023/09/22 00:13:30;;;;;;;5.03;3.20;;;;;;;16.83;100.00;99526.88;6252478;28;20049;-71
2023/09/22 00:16:34;;;;;;;3.45;2.85;;;;;;;16.80;100.00;99531.66;6252559;28;20059;-71
2023/09/22 00:19:35;;;;;;;4.88;3.40;;;;;;;16.73;100.00;99553.50;6252025;28;20422;-71
2023/09/22 00:22:37;;;;;;;7.88;3.45;;;;;;;16.69;100.00;99540.66;6252236;28;20179;-71
2023/09/22 00:25:38;;;;;;;4.05;3.20;;;;;;;16.64;100.00;99530.50;6252112;28;20050;-71
2023/09/22 00:28:41;;;;;;;4.18;3.13;;;;;;;16.69;100.00;99530.88;6251798;28;20442;-71
2023/09/22 00:31:42;;;;;;;5.15;3.20;;;;;;;16.66;100.00;99549.72;6252179;28;20062;-71
2023/09/22 00:34:44;;;;;;;3.90;2.75;;;;;;;16.81;100.00;99551.94;6252299;28;20060;-71
2023/09/22 00:37:45;;;;;;;4.35;3.10;;;;;;;16.78;100.00;99545.09;6251914;28;20046;-71
2023/09/22 00:40:47;;;;;;;5.22;2.97;;;;;;;16.72;100.00;99556.31;6251444;28;20045;-71
2023/09/22 00:43:49;;;;;;;6.38;3.78;;;;;;;16.72;100.00;99553.66;6251812;28;20434;-71
2023/09/22 00:46:51;;;;;;;5.38;3.40;;;;;;;16.73;100.00;99544.72;6251632;28;20049;-71
2023/09/22 00:49:54;;;;;;;6.30;3.80;;;;;;;16.63;100.00;99559.84;6251454;28;20486;-73
2023/09/22 00:52:55;;;;;;;4.63;3.53;;;;;;;16.61;100.00;99552.00;6250850;28;20042;-71
2023/09/22 00:55:57;;;;;;;8.40;4.20;;;;;;;16.62;100.00;99552.84;6251145;28;20479;-71
2023/09/22 00:59:00;;;;;;;8.68;3.75;;;;;;;16.66;100.00;99557.69;6250925;28;20362;-71
2023/09/22 01:02:02;;;;;;;5.07;3.95;;;;;;;16.59;100.00;99558.47;6250620;28;20148;-71
2023/09/22 01:05:03;;;;;;;7.40;4.35;;;;;;;16.57;100.00;99560.41;6250968;28;20396;-71
2023/09/22 01:08:05;;;;;;;6.00;3.78;;;;;;;16.57;100.00;99566.53;6251419;28;20050;-71
2023/09/22 01:11:07;;;;;;;4.50;3.47;;;;;;;16.55;100.00;99567.69;6250942;28;20048;-71
2023/09/22 01:14:10;;;;;;;5.93;3.63;;;;;;;16.54;100.00;99566.88;6251037;28;20143;-70
2023/09/22 01:17:13;;;;;;;5.53;3.60;;;;;;;16.49;100.00;99574.44;6251417;28;20049;-71
2023/09/22 01:20:16;;;;;;;4.30;3.20;;;;;;;16.44;100.00;99566.06;6250620;28;20346;-71
2023/09/22 01:23:18;;;;;;;5.13;3.38;;;;;;;16.47;100.00;99579.03;6250973;28;20203;-71
2023/09/22 01:26:21;;;;;;;4.78;3.03;;;;;;;16.42;100.00;99576.84;6250932;28;20437;-71
2023/09/22 01:29:22;;;;;;;4.78;3.25;;;;;;;16.37;100.00;99578.25;6250779;28;20182;-70
2023/09/22 01:32:24;;;;;;;5.57;3.17;;;;;;;16.33;100.00;99576.88;6250931;28;20128;-71
2023/09/22 01:35:25;;;;;;;10.43;4.35;;;;;;;16.31;100.00;99573.56;6250992;28;20049;-70
2023/09/22 01:38:28;;;;;;;3.78;2.50;;;;;;;16.29;100.00;99576.34;6250625;28;20053;-70
2023/09/22 01:41:30;;;;;;;3.97;2.75;;;;;;;16.26;100.00;99576.66;6250846;28;20054;-71
2023/09/22 01:44:31;;;;;;;5.10;3.58;;;;;;;16.24;100.00;99574.13;6250697;28;20057;-71
2023/09/22 01:47:33;;;;;;;4.00;2.70;;;;;;;16.22;100.00;99577.94;6250580;28;20056;-71
2023/09/22 01:50:37;;;;;;;7.90;3.63;;;;;;;16.20;100.00;99577.22;6250628;28;20497;-71
2023/09/22 01:53:40;;;;;;;4.95;2.65;;;;;;;16.19;100.00;99592.28;6250318;28;20057;-71
2023/09/22 01:56:41;;;;;;;4.15;2.67;;;;;;;16.30;100.00;99598.38;6250606;28;20049;-71
2023/09/22 01:59:43;;;;;;;5.97;3.80;;;;;;;16.35;100.00;99593.47;6250097;28;20045;-70
2023/09/22 02:02:44;;;;;;;4.82;3.08;;;;;;;16.29;100.00;99597.56;6250486;28;20045;-71
2023/09/22 02:05:46;;;;;;;7.03;3.13;;;;;;;16.29;100.00;99604.66;6250633;28;20053;-71
2023/09/22 02:08:48;;;;;;;4.47;2.95;;;;;;;16.24;100.00;99615.72;6249280;28;20054;-70
2023/09/22 02:11:50;;;;;;;5.72;3.30;;;;;;;16.24;100.00;99621.00;6270576;23;20052;-70
2023/09/22 02:14:52;;;;;;;4.45;3.00;;;;;;;16.14;100.00;99621.06;6203194;28;20068;-70
2023/09/22 02:17:54;;;;;;;4.68;2.55;;;;;;;16.10;100.00;99624.97;6220060;28;20508;-71
2023/09/22 02:20:56;;;;;;;3.78;1.95;;;;;;;16.12;100.00;99625.66;6230291;28;20061;-71
2023/09/22 02:23:59;;;;;;;4.07;2.08;;;;;;;16.15;100.00;99629.84;6230632;28;20062;-71
2023/09/22 02:27:01;;;;;;;2.35;1.65;;;;;;;16.16;100.00;99623.56;6230176;28;20431;-71
2023/09/22 02:30:03;;;;;;;3.35;1.65;;;;;;;16.17;100.00;99639.34;6229668;28;20057;-70
2023/09/22 02:33:04;;;;;;;2.65;1.90;;;;;;;16.11;100.00;99642.53;6229505;28;20050;-70
2023/09/22 02:36:07;;;;;;;3.20;1.73;;;;;;;16.12;100.00;99638.91;6230173;28;20057;-70
2023/09/22 02:39:10;;;;;;;2.88;1.30;;;;;;;16.17;100.00;99644.63;6229454;28;20137;-70
2023/09/22 02:42:13;;;;;;;2.88;1.48;;;;;;;16.18;100.00;99640.16;6229828;28;20052;-70
2023/09/22 02:45:15;;;;;;;3.53;1.67;;;;;;;16.20;100.00;99635.53;6229458;28;20073;-71
2023/09/22 02:48:16;;;;;;;2.92;1.27;;;;;;;16.16;100.00;99616.44;6229195;28;20428;-70
2023/09/22 02:51:18;;;;;;;2.75;1.50;;;;;;;16.16;100.00;99618.25;6229132;28;20053;-70
2023/09/22 02:54:20;;;;;;;1.80;1.27;;;;;;;16.13;100.00;99622.03;6229800;28;20050;-70
2023/09/22 02:57:22;;;;;;;3.35;1.50;;;;;;;16.11;100.00;99617.84;6229632;28;20046;-70
2023/09/22 03:00:24;;;;;;;2.80;1.50;;;;;;;16.14;100.00;99612.28;6229024;28;20045;-70
2023/09/22 03:03:25;;;;;;;2.20;1.45;;;;;;;16.07;100.00;99627.06;6228634;28;20695;-70
2023/09/22 03:06:26;;;;;;;2.42;1.25;;;;;;;16.05;100.00;99632.53;6229209;28;20046;-70
2023/09/22 03:09:29;;;;;;;4.68;1.33;;;;;;;16.06;100.00;99644.78;6229199;28;20054;-70
2023/09/22 03:12:31;;;;;;;3.08;1.48;;;;;;;16.06;100.00;99647.44;6228706;28;20042;-71
2023/09/22 03:15:34;;;;;;;2.17;1.25;;;;;;;16.03;100.00;99639.78;6228996;28;20050;-70
2023/09/22 03:18:36;;;;;;;5.38;1.15;;;;;;;16.06;100.00;99643.97;6228638;28;20050;-71
2023/09/22 03:21:37;;;;;;;2.38;1.02;;;;;;;16.05;100.00;99643.13;6228879;28;20046;-71
2023/09/22 03:24:40;;;;;;;1.13;0.90;;;;;;;16.01;100.00;99632.97;6228673;28;20054;-71
2023/09/22 03:27:41;;;;;;;2.72;1.10;;;;;;;16.02;100.00;99624.84;6227764;28;20050;-71
2023/09/22 03:30:43;;;;;;;2.67;1.20;;;;;;;16.06;100.00;99622.75;6228456;28;20046;-71
2023/09/22 03:33:46;;;;;;;2.97;1.45;;;;;;;16.04;100.00;99627.38;6228254;28;20434;-71
2023/09/22 03:36:49;;;;;;;1.58;0.85;;;;;;;16.03;100.00;99610.63;6228254;28;20057;-71
2023/09/22 03:39:51;;;;;;;2.22;1.00;;;;;;;15.95;100.00;99621.13;6219227;28;20042;-72
2023/09/22 03:42:53;;;;;;;1.52;0.95;;;;;;;15.95;100.00;99626.44;6217590;28;20434;-71
2023/09/22 03:45:55;;;;;;;0.57;0.57;;;;;;;15.92;100.00;99621.41;6215467;28;20056;-71
2023/09/22 03:48:56;;;;;;;1.45;1.05;;;;;;;15.84;100.00;99608.88;6223855;28;20458;-71
2023/09/22 03:51:57;;;;;;;2.38;1.00;;;;;;;15.85;100.00;99604.41;6216506;28;20057;-71
2023/09/22 03:55:00;;;;;;;2.72;1.13;;;;;;;15.80;100.00;99606.66;6214582;28;20357;-71
2023/09/22 03:58:02;;;;;;;3.33;1.15;;;;;;;15.73;100.00;99598.44;6216123;28;20394;-70
2023/09/22 04:01:07;;;;;;;1.60;0.90;;;;;;;15.69;100.00;99599.72;6213889;28;20057;-70
2023/09/22 04:04:08;;;;;;;1.33;1.10;;;;;;;15.67;100.00;99599.88;6214338;28;20042;-70
2023/09/22 04:07:09;;;;;;;3.05;1.35;;;;;;;15.68;100.00;99613.94;6215523;28;20160;-70
2023/09/22 04:10:12;;;;;;;1.60;1.08;;;;;;;15.73;100.00;99622.28;6214404;28;20043;-70
2023/09/22 04:13:14;;;;;;;1.38;1.05;;;;;;;15.69;100.00;99632.31;6212122;28;20042;-71
2023/09/22 04:16:16;;;;;;;1.70;1.13;;;;;;;15.67;100.00;99642.25;6203295;28;20073;-70
2023/09/22 04:19:18;;;;;;;1.00;0.90;;;;;;;15.72;100.00;99642.66;6202779;28;20046;-70
2023/09/22 04:22:20;;;;;;;2.72;1.08;;;;;;;15.66;100.00;99651.13;6203173;28;20453;-70
2023/09/22 04:25:31;;;;;;;2.45;1.27;;;;;;;15.67;100.00;99644.06;6203275;28;20188;-70
2023/09/22 04:28:32;;;;;;;0.98;0.82;;;;;;;15.68;100.00;99649.22;6202962;28;20137;-70
2023/09/22 04:31:34;;;;;;;1.80;1.20;;;;;;;15.67;100.00;99654.66;6202660;28;20050;-70
2023/09/22 04:34:36;;;;;;;1.63;1.00;;;;;;;15.68;100.00;99649.22;6202984;28;20057;-70
2023/09/22 04:37:37;;;;;;;2.70;1.40;;;;;;;15.67;100.00;99650.19;6202573;28;20094;-70
2023/09/22 04:40:40;;;;;;;1.75;1.23;;;;;;;15.63;100.00;99645.28;6202583;28;20054;-70
2023/09/22 04:43:42;;;;;;;1.88;1.20;;;;;;;15.62;100.00;99644.41;6202611;28;20042;-70
2023/09/22 04:46:44;;;;;;;3.60;1.80;;;;;;;15.54;100.00;99643.47;6202595;28;20073;-71
2023/09/22 04:49:46;;;;;;;4.20;2.25;;;;;;;15.51;100.00;99646.41;6202459;28;20050;-71
2023/09/22 04:52:49;;;;;;;2.55;1.75;;;;;;;15.56;100.00;99658.22;6202158;28;20061;-70
2023/09/22 04:56:03;;;;;;;6.78;4.22;;;;;;;15.58;100.00;99688.06;6202230;28;20462;-70
2023/09/22 04:59:04;;;;;;;3.70;2.47;;;;;;;15.56;100.00;99682.06;6202033;28;20167;-70
2023/09/22 05:02:06;;;;;;;3.58;2.40;;;;;;;15.53;100.00;99684.97;6208893;28;20049;-70
2023/09/22 05:05:08;;;;;;;3.92;2.03;;;;;;;15.51;100.00;99678.19;6226353;28;20069;-70
2023/09/22 05:08:09;;;;;;;3.00;1.95;;;;;;;15.55;100.00;99659.22;6226368;28;20309;-70
2023/09/22 05:11:12;;;;;;;2.20;1.73;;;;;;;15.52;100.00;99675.38;6226206;28;20076;-70
2023/09/22 05:14:14;;;;;;;3.67;1.92;;;;;;;15.43;100.00;99686.81;6224104;28;20041;-70
2023/09/22 05:17:16;;;;;;;2.83;1.85;;;;;;;15.40;100.00;99672.06;6226302;28;20054;-71
2023/09/22 05:20:19;;;;;;;4.70;2.30;;;;;;;15.45;100.00;99671.63;6226075;28;20335;-71
2023/09/22 05:23:23;;;;;;;3.25;2.33;;;;;;;15.39;100.00;99670.34;6226115;28;20353;-71
2023/09/22 05:26:26;;;;;;;6.78;2.38;;;;;;;15.28;100.00;99691.69;6226038;28;20195;-71
2023/09/22 05:29:27;;;;;;;2.83;2.20;;;;;;;15.25;100.00;99689.28;6225952;28;20132;-71
2023/09/22 05:32:29;;;;;;;4.53;2.85;;;;;;;15.26;100.00;99693.63;6225900;28;20046;-72
2023/09/22 05:35:30;;;;;;;6.30;2.38;;;;;;;15.18;100.00;99702.25;6226280;28;20058;-70
2023/09/22 05:38:31;;;;;;;4.18;2.65;;;;;;;15.21;100.00;99707.28;6225679;28;20060;-70
2023/09/22 05:41:34;;;;;;;4.75;3.10;;;;;;;15.15;100.00;99702.53;6225927;28;20050;-70
2023/09/22 05:44:35;;;;;;;4.25;2.90;;;;;;;15.18;100.00;99704.06;6226024;28;20057;-72
2023/09/22 05:47:37;;;;;;;5.47;3.38;;;;;;;15.23;100.00;99712.44;6225809;28;20053;-70
2023/09/22 05:50:40;;;;;;;4.20;2.70;;;;;;;15.11;100.00;99716.16;6224853;28;20050;-70
2023/09/22 05:53:41;;;;;;;6.55;3.17;;;;;;;15.06;100.00;99721.88;6225490;28;20119;-70
2023/09/22 05:56:44;;;;;;;6.65;2.88;;;;;;;15.06;100.00;99748.31;6225823;28;20054;-70
2023/09/22 05:59:46;;;;;;;7.50;3.35;;;;;;;15.04;100.00;99758.22;6225649;28;20053;-71
2023/09/22 06:02:49;;;;;;;3.70;3.05;;;;;;;15.06;100.00;99758.91;6225591;28;20046;-70
2023/09/22 06:05:51;;;;;;;8.18;3.33;;;;;;;15.12;100.00;99766.28;6225435;28;20060;-70
2023/09/22 06:08:52;;;;;;;5.10;3.47;;;;;;;15.09;100.00;99763.94;6225677;28;20057;-70
2023/09/22 06:11:55;;;;;;;5.05;3.45;;;;;;;15.07;100.00;99754.44;6225432;28;20057;-70
2023/09/22 06:14:57;;;;;;;5.15;3.22;;;;;;;15.15;100.00;99770.50;6225764;28;20046;-70
2023/09/22 06:17:58;;;;;;;7.05;3.83;;;;;;;15.18;100.00;99775.53;6225497;28;20458;-70
2023/09/22 06:21:01;;;;;;;5.35;3.13;;;;;;;15.18;100.00;99789.59;6225372;28;20045;-70
2023/09/22 06:24:03;;;;;;;6.57;3.70;;;;;;;15.24;100.00;99790.84;6225492;28;20133;-70
2023/09/22 06:27:07;;;;;;;5.22;3.42;;;;;;;15.27;100.00;99798.53;6225707;28;20173;-70
2023/09/22 06:30:11;;;;;;;9.65;3.67;;;;;;;15.31;100.00;99802.59;6225269;28;20137;-70
2023/09/22 06:33:12;;;;;;;7.10;4.13;;;;;;;15.31;100.00;99799.13;6225218;28;20458;-70
2023/09/22 06:36:14;;;;;;;5.50;3.95;;;;;;;15.31;100.00;99793.81;6223160;28;20050;-70
2023/09/22 06:39:16;;;;;;;5.85;4.05;;;;;;;15.18;100.00;99788.75;6201138;28;20046;-70
2023/09/22 06:42:19;;;;;;;7.45;4.25;;;;;;;15.18;100.00;99797.53;6200992;28;20058;-70
2023/09/22 06:45:21;;;;;;;5.80;3.83;;;;;;;15.21;100.00;99794.63;6210104;28;20431;-70
2023/09/22 06:48:25;;;;;;;5.25;3.45;;;;;;;15.22;100.00;99796.31;6212217;28;20125;-71
2023/09/22 06:51:27;;;;;;;6.05;4.22;;;;;;;15.16;100.00;99791.53;6213196;28;20097;-70
2023/09/22 06:54:29;;;;;;;6.60;3.42;;;;;;;15.16;100.00;99806.56;6216688;28;20050;-70
2023/09/22 06:57:32;;;;;;;5.93;3.80;;;;;;;15.17;100.00;99809.09;6225189;28;20066;-71
2023/09/22 07:00:33;;;;;;;7.18;4.03;;;;;;;15.18;100.00;99802.00;6225548;28;20061;-70
2023/09/22 07:03:35;;;;;;;5.22;3.38;;;;;;;15.14;100.00;99811.16;6228637;28;20037;-71
2023/09/22 07:06:37;;;;;;;6.38;3.42;;;;;;;15.21;100.00;99812.28;6229561;28;20056;-71
2023/09/22 07:09:38;;;;;;;6.40;3.85;;;;;;;15.19;100.00;99809.78;6229300;28;20062;-71
2023/09/22 07:12:41;;;;;;;8.18;3.95;;;;;;;15.15;100.00;99813.69;6229062;28;20058;-72
2023/09/22 07:15:43;;;;;;;4.68;3.17;;;;;;;15.15;100.00;99818.13;6229190;28;20459;-71
2023/09/22 07:18:44;;;;;;;5.20;3.15;;;;;;;15.15;100.00;99834.84;6228856;28;20370;-71
2023/09/22 07:21:46;;;;;;;5.07;3.20;;;;;;;15.24;100.00;99838.50;6228847;28;20057;-71
2023/09/22 07:24:47;;;;;;;4.60;2.70;;;;;;;15.22;100.00;99848.41;6228954;28;20057;-71
2023/09/22 07:27:52;;;;;;;6.10;3.10;;;;;;;15.31;100.00;99858.19;6229060;28;20046;-71
2023/09/22 07:30:54;;;;;;;4.68;2.70;;;;;;;15.34;100.00;99863.19;6228652;28;20430;-71
2023/09/22 07:33:55;;;;;;;3.67;2.60;;;;;;;15.40;100.00;99841.50;6228745;28;20049;-71
2023/09/22 07:36:56;;;;;;;6.38;3.20;;;;;;;15.38;100.00;99845.22;6228727;28;20141;-71
2023/09/22 07:39:58;;;;;;;9.38;3.63;;;;;;;15.41;100.00;99853.75;6228292;28;20438;-71
2023/09/22 07:43:01;;;;;;;4.88;2.72;;;;;;;15.32;100.00;99864.31;6228410;28;20045;-71
2023/09/22 07:46:04;;;;;;;9.10;3.22;;;;;;;15.27;100.00;99866.53;6228475;28;20053;-71
2023/09/22 07:49:06;;;;;;;8.00;3.10;;;;;;;15.30;100.00;99858.31;6228264;28;20053;-71
2023/09/22 07:52:09;;;;;;;7.05;3.03;;;;;;;15.37;100.00;99870.88;6216357;28;20349;-71
2023/09/22 07:55:14;;;;;;;5.15;3.20;;;;;;;15.36;100.00;99871.84;6220081;28;20046;-70
2023/09/22 07:58:16;;;;;;;5.20;3.00;;;;;;;15.48;100.00;99876.06;6226778;28;20057;-70
2023/09/22 08:01:18;;;;;;;5.82;2.70;;;;;;;15.58;100.00;99880.53;6221752;28;20046;-71
2023/09/22 08:04:20;;;;;;;8.40;2.53;;;;;;;15.61;100.00;99894.34;6227819;28;20048;-71
2023/09/22 08:07:21;;;;;;;4.55;2.55;;;;;;;15.69;100.00;99891.91;6225461;28;20060;-75
2023/09/22 08:10:23;;;;;;;4.20;2.40;;;;;;;15.78;100.00;99890.25;6226933;28;20053;-70
2023/09/22 08:13:26;;;;;;;4.15;2.35;;;;;;;15.85;100.00;99890.53;6221937;28;20096;-71
2023/09/22 08:16:28;;;;;;;4.63;2.75;;;;;;;15.91;100.00;99890.84;6227334;28;20143;-71
2023/09/22 08:19:30;;;;;;;4.40;2.40;;;;;;;15.98;100.00;99888.47;6227318;28;20050;-71
2023/09/22 08:22:32;;;;;;;5.75;2.30;;;;;;;15.93;100.00;99885.41;6226698;28;20129;-70
2023/09/22 08:25:34;;;;;;;3.97;2.10;;;;;;;15.96;100.00;99875.38;6224904;28;20042;-72
2023/09/22 08:28:37;;;;;;;5.78;1.65;;;;;;;16.03;100.00;99877.47;6224996;28;20050;-70
2023/09/22 08:31:39;;;;;;;2.45;1.70;;;;;;;16.07;100.00;99889.47;6226273;28;20045;-71
2023/09/22 08:34:40;;;;;;;3.92;1.80;;;;;;;16.10;100.00;99905.09;6227204;28;20100;-71
2023/09/22 08:37:42;;;;;;;4.07;1.75;;;;;;;16.10;100.00;99913.88;6227067;28;20050;-71
2023/09/22 08:40:46;;;;;;;2.90;1.80;;;;;;;16.21;100.00;99918.22;6226857;28;20336;-70
2023/09/22 08:43:49;;;;;;;2.80;1.58;;;;;;;16.30;100.00;99914.72;6226927;28;20108;-73
2023/09/22 08:46:50;;;;;;;3.80;1.83;;;;;;;16.37;100.00;99922.97;6219479;28;20393;-71
2023/09/22 08:49:52;;;;;;;13.65;3.03;;;;;;;16.30;100.00;99929.81;6227162;28;20064;-71
2023/09/22 08:52:53;;;;;;;2.85;1.10;;;;;;;16.36;100.00;99939.88;6226017;28;20078;-70
2023/09/22 08:55:55;;;;;;;3.03;1.20;;;;;;;16.47;100.00;99937.06;6226509;28;20350;-71
2023/09/22 08:58:58;;;;;;;2.33;0.75;;;;;;;16.43;100.00;99956.88;6226632;28;20050;-71
2023/09/22 09:02:02;;;;;;;2.00;1.02;;;;;;;16.46;100.00;99959.28;6225947;28;20050;-70
2023/09/22 09:05:19;;;;;;;2.83;1.25;;;;;;;16.53;100.00;99957.72;6225194;28;20045;-71
2023/09/22 09:08:21;;;;;;;2.40;1.10;;;;;;;16.53;100.00;99935.66;6224851;28;20124;-71
2023/09/22 09:11:22;;;;;;;1.85;1.10;;;;;;;16.61;100.00;99927.84;6226646;28;20053;-70
2023/09/22 09:14:28;;;;;;;0.77;0.52;;;;;;;16.70;100.00;99916.41;6226288;28;20050;-71
2023/09/22 09:17:29;;;;;;;2.00;1.13;;;;;;;16.75;100.00;99916.84;6226395;28;20050;-71
2023/09/22 09:20:32;;;;;;;1.60;0.80;;;;;;;16.53;100.00;99925.06;6224379;28;20049;-71
2023/09/22 09:23:34;;;;;;;2.10;1.00;;;;;;;16.55;100.00;99921.31;6216980;28;20049;-71
2023/09/22 09:26:35;;;;;;;0.95;0.80;;;;;;;16.58;100.00;99920.16;6213261;28;20053;-71
2023/09/22 09:29:38;;;;;;;1.80;0.82;;;;;;;16.60;100.00;99916.41;6225925;28;20046;-71
2023/09/22 09:32:40;;;;;;;1.35;0.60;;;;;;;16.61;100.00;99914.59;6212473;28;20053;-71
2023/09/22 09:35:42;;;;;;;1.60;0.80;;;;;;;16.63;100.00;99921.44;6214961;28;20065;-71
2023/09/22 09:38:43;;;;;;;1.85;0.75;;;;;;;16.73;100.00;99917.00;6214862;28;20077;-71
2023/09/22 09:41:44;;;;;;;8.00;1.20;;;;;;;16.73;100.00;99914.34;6219640;28;20050;-71
2023/09/22 09:44:50;;;;;;;2.33;0.68;;;;;;;16.84;100.00;99915.16;6222175;28;20057;-71
2023/09/22 09:47:55;;;;;;;1.88;1.00;;;;;;;16.83;100.00;99916.13;6220744;28;20054;-71
2023/09/22 09:50:59;;;;;;;2.88;1.00;;;;;;;16.78;100.00;99915.72;6221794;28;20045;-71
2023/09/22 09:54:05;;;;;;;0.70;0.50;;;;;;;16.79;100.00;99926.19;6216502;28;20049;-71
2023/09/22 09:57:09;;;;;;;1.65;0.68;;;;;;;16.80;100.00;99927.84;6225767;28;20056;-71
2023/09/22 10:00:14;;;;;;;0.50;0.50;;;;;;;16.73;100.00;99940.03;6225620;28;20053;-71
2023/09/22 10:03:17;;;;;;;1.30;0.70;;;;;;;16.77;100.00;99936.13;6225387;28;20133;-71
2023/09/22 10:06:21;;;;;;;0.85;0.50;;;;;;;16.79;100.00;99939.47;6225825;28;20050;-72
2023/09/22 10:09:23;;;;;;;0.68;0.50;;;;;;;16.92;100.00;99934.69;6225548;28;20060;-71
2023/09/22 10:12:24;;;;;;;1.35;0.82;;;;;;;16.98;100.00;99928.81;6224790;28;20051;-71
2023/09/22 10:15:53;;;;;;;1.80;0.60;;;;;;;16.91;100.00;99924.22;6221359;28;20049;-71
2023/09/22 10:18:55;;;;;;;1.45;0.57;;;;;;;16.99;100.00;99919.88;6220353;28;20449;-71
2023/09/22 10:22:11;;;;;;;0.60;0.60;;;;;;;16.88;100.00;99917.38;6225388;28;20054;-72
2023/09/22 10:25:21;;;;;;;0.70;0.60;;;;;;;17.08;100.00;99927.94;6219679;28;20045;-72
2023/09/22 10:28:28;;;;;;;1.75;0.70;;;;;;;17.22;100.00;99925.69;6225327;28;20104;-71
2023/09/22 10:31:30;;;;;;;1.08;0.73;;;;;;;17.41;100.00;99923.94;6225284;28;20147;-72
2023/09/22 10:34:54;;;;;;;3.00;0.60;;;;;;;17.47;100.00;99928.66;6225812;28;20053;-71
2023/09/22 10:38:00;;;;;;;2.80;0.65;;;;;;;17.60;100.00;99933.66;6226706;28;20057;-72
2023/09/22 10:41:05;;;;;;;1.60;0.70;;;;;;;17.53;100.00;99916.59;6229796;28;20057;-72
2023/09/22 10:44:06;;;;;;;0.88;0.45;;;;;;;17.57;100.00;99918.00;6229263;28;20535;-72
2023/09/22 10:47:09;;;;;;;0.80;0.60;;;;;;;17.50;100.00;99923.06;6228326;28;20050;-72
2023/09/22 10:50:16;;;;;;;2.00;0.68;;;;;;;17.47;100.00;99921.53;6229586;28;20053;-72
2023/09/22 10:53:17;;;;;;;1.02;0.50;;;;;;;17.52;100.00;99921.09;6229561;28;20183;-72
2023/09/22 10:56:19;;;;;;;0.50;0.40;;;;;;;17.49;100.00;99929.38;6229865;28;20053;-72
2023/09/22 10:59:31;;;;;;;0.45;0.43;;;;;;;17.33;100.00;99929.16;6229229;28;20088;-72
2023/09/22 11:02:33;;;;;;;1.08;0.63;;;;;;;17.41;100.00;99934.56;6229174;28;20116;-72
2023/09/22 11:05:35;;;;;;;2.30;0.60;;;;;;;17.44;100.00;99940.44;6228085;28;20049;-72
2023/09/22 11:08:47;;;;;;;1.05;0.50;;;;;;;17.67;100.00;99937.41;6229254;28;20081;-72
2023/09/22 11:11:50;;;;;;;1.77;0.50;;;;;;;17.70;100.00;99955.69;6228877;28;20053;-72
2023/09/22 11:14:51;;;;;;;1.13;0.68;;;;;;;17.71;100.00;99954.69;6229250;28;20053;-72
2023/09/22 11:17:54;;;;;;;0.73;0.55;;;;;;;17.77;100.00;99953.34;6229200;28;20148;-72
2023/09/22 11:20:57;;;;;;;1.27;0.55;;;;;;;17.90;100.00;99952.00;6228743;28;20461;-71
2023/09/22 11:23:58;;;;;;;0.60;0.40;;;;;;;18.01;100.00;99964.25;6228841;28;20512;-71
2023/09/22 11:27:04;;;;;;;1.75;0.45;;;;;;;18.12;100.00;99971.16;6229113;28;20053;-71
2023/09/22 11:30:14;;;;;;;1.88;0.57;;;;;;;18.25;100.00;99968.97;6228669;28;20054;-71
2023/09/22 11:33:17;;;;;;;3.00;0.38;;;;;;;18.32;100.00;99971.91;6228622;28;20480;-71
2023/09/22 11:36:18;;;;;;;2.42;0.55;;;;;;;18.44;100.00;99976.00;6228556;28;20354;-71
2023/09/22 11:39:26;;;;;;;0.47;0.40;;;;;;;18.55;100.00;99974.94;6228772;28;20049;-72
2023/09/22 11:42:28;;;;;;;5.85;0.52;;;;;;;18.41;100.00;99979.81;6228470;28;20049;-80
2023/09/22 11:45:29;;;;;;;1.35;0.50;;;;;;;18.36;100.00;99981.25;6228412;28;20057;-77
2023/09/22 11:48:32;;;;;;;1.95;0.47;;;;;;;18.28;100.00;99975.84;6227710;28;20053;-79
2023/09/22 11:51:44;;;;;;;2.33;0.40;;;;;;;18.35;100.00;99991.06;6228371;28;20053;-71
2023/09/22 11:54:46;;;;;;;0.40;0.40;;;;;;;18.69;100.00;99985.09;6228152;28;20327;-72
2023/09/22 11:57:47;;;;;;;1.30;0.50;;;;;;;18.68;100.00;99981.56;6227942;28;20057;-71
2023/09/22 12:00:49;;;;;;;0.75;0.52;;;;;;;18.87;100.00;99993.06;6227640;28;20057;-71
2023/09/22 12:03:52;;;;;;;0.75;0.47;;;;;;;19.16;100.00;99982.94;6227869;28;20053;-72
2023/09/22 12:06:54;;;;;;;1.70;0.57;;;;;;;19.91;100.00;99975.25;6228173;28;20084;-72
2023/09/22 12:09:56;;;;;;;1.60;0.38;;;;;;;20.51;100.00;99972.41;6227738;28;20129;-72
2023/09/22 12:12:58;;;;;;;0.45;0.43;;;;;;;20.66;100.00;99969.09;6227940;28;20060;-72
2023/09/22 12:15:59;;;;;;;0.60;0.40;;;;;;;20.65;100.00;99970.94;6227852;28;20050;-72
2023/09/22 12:19:03;;;;;;;0.57;0.40;;;;;;;20.92;100.00;99964.41;6227353;28;20054;-72
2023/09/22 12:22:04;;;;;;;2.95;0.80;;;;;;;20.55;100.00;99970.25;6227681;28;20055;-72
2023/09/22 12:25:07;;;;;;;2.22;0.40;;;;;;;20.24;100.00;99968.16;6227793;28;20049;-72
2023/09/22 12:28:09;;;;;;;0.38;0.32;;;;;;;19.81;100.00;99977.22;6224317;28;20449;-72
2023/09/22 12:31:10;;;;;;;2.83;0.70;;;;;;;19.51;100.00;99978.53;6215621;28;20072;-72
2023/09/22 12:34:13;;;;;;;3.55;0.73;;;;;;;19.27;100.00;99971.22;6227255;28;20042;-71
2023/09/22 12:37:14;;;;;;;1.42;0.57;;;;;;;19.59;100.00;99978.56;6227146;28;20060;-72
2023/09/22 12:40:16;;;;;;;1.85;0.40;;;;;;;19.81;100.00;99977.22;6226870;28;20050;-71
2023/09/22 12:43:17;;;;;;;0.32;0.30;;;;;;;19.81;100.00;99984.38;6226910;28;20053;-72
2023/09/22 12:46:19;;;;;;;2.83;0.50;;;;;;;19.81;100.00;99974.53;6227099;28;20361;-73
2023/09/22 12:49:21;;;;;;;1.50;0.40;;;;;;;19.61;100.00;99979.25;6226778;28;20049;-72
2023/09/22 12:52:23;;;;;;;1.63;0.73;;;;;;;19.35;100.00;99965.09;6227050;28;20463;-71
2023/09/22 12:55:24;;;;;;;0.70;0.40;;;;;;;19.21;100.00;99966.50;6210029;28;20050;-72
2023/09/22 12:58:26;;;;;;;0.60;0.43;;;;;;;19.11;100.00;99963.09;6214358;28;20041;-72
2023/09/22 13:01:28;;;;;;;0.40;0.40;;;;;;;19.32;100.00;99962.75;6224928;28;20128;-72
2023/09/22 13:04:33;;;;;;;0.77;0.45;;;;;;;20.00;100.00;99962.78;6226495;28;20065;-72
2023/09/22 13:07:35;;;;;;;2.83;0.80;;;;;;;20.81;100.00;99961.28;6224148;28;20046;-72
2023/09/22 13:10:40;;;;;;;1.00;0.70;;;;;;;21.20;100.00;99972.91;6219219;28;20042;-72
2023/09/22 13:13:42;;;;;;;1.25;0.90;;;;;;;21.47;100.00;99965.53;6216381;28;20050;-72
2023/09/22 13:16:43;;;;;;;0.82;0.57;;;;;;;21.56;100.00;99959.16;6225039;28;20084;-72
2023/09/22 13:19:46;;;;;;;1.50;0.70;;;;;;;21.88;100.00;99957.38;6225974;28;20397;-71
2023/09/22 13:22:47;;;;;;;0.50;0.40;;;;;;;22.08;99.56;99953.25;6225902;28;20055;-71
2023/09/22 13:25:49;;;;;;;0.77;0.50;;;;;;;22.28;95.81;99949.13;6226478;28;20046;-71
2023/09/22 13:28:54;;;;;;;1.02;0.50;;;;;;;22.13;100.00;99958.94;6226073;28;20680;-71
2023/09/22 13:31:56;;;;;;;0.90;0.35;;;;;;;21.69;89.75;99955.94;6226343;28;20129;-71
2023/09/22 13:34:59;;;;;;;1.02;0.50;;;;;;;21.45;90.83;99957.69;6226361;28;20046;-71
2023/09/22 13:38:00;;;;;;;1.88;0.55;;;;;;;21.75;78.90;99955.25;6226131;28;20068;-71
2023/09/22 13:41:10;;;;;;;1.65;0.60;;;;;;;22.04;70.12;99952.78;6224882;28;20461;-71
2023/09/22 13:44:12;;;;;;;1.15;0.77;;;;;;;22.33;67.39;99951.28;6226260;28;20046;-71
2023/09/22 13:47:13;;;;;;;0.47;0.32;;;;;;;22.68;68.98;99957.06;6225990;28;20052;-71
2023/09/22 13:50:16;;;;;;;0.65;0.40;;;;;;;22.75;66.65;99952.66;6225531;28;20052;-71
2023/09/22 13:53:18;;;;;;;1.40;0.60;;;;;;;22.46;64.24;99946.19;6226070;28;20046;-71
2023/09/22 13:56:20;;;;;;;1.15;0.60;;;;;;;22.18;62.95;99939.69;6225803;28;20431;-72
2023/09/22 13:59:21;;;;;;;1.95;0.50;;;;;;;22.47;64.02;99942.47;6225367;28;20054;-70
2023/09/22 14:02:23;;;;;;;3.05;0.60;;;;;;;22.56;64.61;99937.91;6225049;28;20054;-71
2023/09/22 14:05:26;;;;;;;0.60;0.60;;;;;;;22.75;64.89;99923.19;6225654;28;20081;-71
2023/09/22 14:08:27;;;;;;;1.15;0.50;;;;;;;22.94;65.79;99937.97;6223221;28;20456;-72
2023/09/22 14:11:30;;;;;;;2.88;0.90;;;;;;;22.74;64.70;99951.81;6229086;28;20136;-72